Live aus Altenrhein
LIVE
LSZR 271050Z 28006KT CAVOK 06/03 Q1009 NOSIG RMK F

People´s Info Center:

Öffnungszeiten Mo-Fr, 8-18 Uhr

 

info@peoples.ch

 
Aus Österreich:

T: +43 (0)5572 203 610

 

Aus CH / LI / DE:

T: +41 (0)71 858 51 60

 

Offene Stellen

Möchten Sie ein Teil der People´s Familie werden?

 

 

Wir suchen:

Per sofort oder nach Vereinbarung eine/n Spezialist Airline Vertriebssysteme (m/w) und eine/n IT Systembetreuer (m/w).


Initiativbewerbungen

 

Senden Sie uns Ihre Initiativbewerbungen als Captain oder First Officer:

Ihr Kontakt für Initiativbewerbungen:

 

Tanja Brühwiler

bewerbung@peoples.ch

+41 71 858 51 20